sensor_id;sensor_type;location;lat;lon;timestamp;pressure;altitude;pressure_sealevel;temperature;humidity
19827;BME280;10074;52.018;4.726;2022-12-18T00:03:48;46207.22;;;-144.79;100.00
19827;BME280;10074;52.018;4.726;2022-12-18T00:08:48;46209.22;;;-144.79;100.00
19827;BME280;10074;52.018;4.726;2022-12-18T00:13:49;46201.22;;;-144.79;100.00
19827;BME280;10074;52.018;4.726;2022-12-18T00:18:51;46223.25;;;-144.79;100.00
19827;BME280;10074;52.018;4.726;2022-12-18T00:23:52;46215.25;;;-144.79;100.00
19827;BME280;10074;52.018;4.726;2022-12-18T00:28:53;46219.25;;;-144.79;100.00
19827;BME280;10074;52.018;4.726;2022-12-18T00:33:55;46205.22;;;-144.79;100.00
19827;BME280;10074;52.018;4.726;2022-12-18T00:38:57;46199.19;;;-144.79;100.00
19827;BME280;10074;52.018;4.726;2022-12-18T00:43:58;46205.22;;;-144.79;100.00
19827;BME280;10074;52.018;4.726;2022-12-18T00:48:59;46193.19;;;-144.79;100.00
19827;BME280;10074;52.018;4.726;2022-12-18T00:53:59;46211.22;;;-144.79;100.00
19827;BME280;10074;52.018;4.726;2022-12-18T00:59:00;46231.28;;;-144.79;100.00
19827;BME280;10074;52.018;4.726;2022-12-18T01:04:02;46209.22;;;-144.79;100.00
19827;BME280;10074;52.018;4.726;2022-12-18T01:09:02;46213.25;;;-144.79;100.00
19827;BME280;10074;52.018;4.726;2022-12-18T01:14:03;46209.22;;;-144.79;100.00
19827;BME280;10074;52.018;4.726;2022-12-18T01:19:03;46213.25;;;-144.79;100.00
19827;BME280;10074;52.018;4.726;2022-12-18T01:24:04;46207.22;;;-144.79;100.00
19827;BME280;10074;52.018;4.726;2022-12-18T01:29:05;46199.19;;;-144.79;100.00
19827;BME280;10074;52.018;4.726;2022-12-18T01:34:05;46205.22;;;-144.79;100.00
19827;BME280;10074;52.018;4.726;2022-12-18T01:39:15;46205.22;;;-144.79;100.00
19827;BME280;10074;52.018;4.726;2022-12-18T01:49:56;46223.25;;;-144.79;100.00
19827;BME280;10074;52.018;4.726;2022-12-18T01:54:57;46211.22;;;-144.79;100.00
19827;BME280;10074;52.018;4.726;2022-12-18T02:00:07;46201.22;;;-144.79;100.00
19827;BME280;10074;52.018;4.726;2022-12-18T02:05:09;46239.31;;;-144.79;100.00
19827;BME280;10074;52.018;4.726;2022-12-18T02:10:24;46215.25;;;-144.79;100.00
19827;BME280;10074;52.018;4.726;2022-12-18T02:15:38;46191.19;;;-144.79;100.00
19827;BME280;10074;52.018;4.726;2022-12-18T02:20:50;46215.25;;;-144.79;100.00
19827;BME280;10074;52.018;4.726;2022-12-18T02:26:07;46203.22;;;-144.79;100.00
19827;BME280;10074;52.018;4.726;2022-12-18T02:31:15;46201.22;;;-144.79;100.00
19827;BME280;10074;52.018;4.726;2022-12-18T02:36:18;46223.25;;;-144.79;100.00
19827;BME280;10074;52.018;4.726;2022-12-18T02:41:21;46203.22;;;-144.79;100.00
19827;BME280;10074;52.018;4.726;2022-12-18T02:46:32;46207.22;;;-144.79;100.00
19827;BME280;10074;52.018;4.726;2022-12-18T02:51:43;46187.19;;;-144.79;100.00
19827;BME280;10074;52.018;4.726;2022-12-18T02:56:51;46199.19;;;-144.79;100.00
19827;BME280;10074;52.018;4.726;2022-12-18T03:02:00;46199.19;;;-144.79;100.00
19827;BME280;10074;52.018;4.726;2022-12-18T03:07:05;46187.19;;;-144.79;100.00
19827;BME280;10074;52.018;4.726;2022-12-18T03:12:19;46211.22;;;-144.79;100.00
19827;BME280;10074;52.018;4.726;2022-12-18T03:17:26;46213.25;;;-144.79;100.00
19827;BME280;10074;52.018;4.726;2022-12-18T03:22:30;46211.22;;;-144.79;100.00
19827;BME280;10074;52.018;4.726;2022-12-18T03:27:33;46197.19;;;-144.79;100.00
19827;BME280;10074;52.018;4.726;2022-12-18T03:33:00;46203.22;;;-144.79;100.00
19827;BME280;10074;52.018;4.726;2022-12-18T03:38:01;46185.16;;;-144.79;100.00
19827;BME280;10074;52.018;4.726;2022-12-18T03:43:09;46199.19;;;-144.79;100.00
19827;BME280;10074;52.018;4.726;2022-12-18T03:48:16;46191.19;;;-144.79;100.00
19827;BME280;10074;52.018;4.726;2022-12-18T03:58:31;46207.22;;;-144.79;100.00
19827;BME280;10074;52.018;4.726;2022-12-18T04:03:34;46219.25;;;-144.79;100.00
19827;BME280;10074;52.018;4.726;2022-12-18T04:08:35;46205.22;;;-144.79;100.00
19827;BME280;10074;52.018;4.726;2022-12-18T04:13:37;46197.19;;;-144.79;100.00
19827;BME280;10074;52.018;4.726;2022-12-18T04:18:37;46191.19;;;-144.79;100.00
19827;BME280;10074;52.018;4.726;2022-12-18T04:23:38;46207.22;;;-144.79;100.00
19827;BME280;10074;52.018;4.726;2022-12-18T04:28:38;46197.19;;;-144.79;100.00
19827;BME280;10074;52.018;4.726;2022-12-18T04:33:38;46195.19;;;-144.79;100.00
19827;BME280;10074;52.018;4.726;2022-12-18T04:38:39;46203.22;;;-144.79;100.00
19827;BME280;10074;52.018;4.726;2022-12-18T04:43:39;46207.22;;;-144.79;100.00
19827;BME280;10074;52.018;4.726;2022-12-18T04:48:39;46183.16;;;-144.79;100.00
19827;BME280;10074;52.018;4.726;2022-12-18T04:53:40;46199.19;;;-144.79;100.00
19827;BME280;10074;52.018;4.726;2022-12-18T04:58:42;46229.28;;;-144.79;100.00
19827;BME280;10074;52.018;4.726;2022-12-18T05:03:43;46193.19;;;-144.79;100.00
19827;BME280;10074;52.018;4.726;2022-12-18T05:08:43;46239.31;;;-144.79;100.00
19827;BME280;10074;52.018;4.726;2022-12-18T05:13:44;46211.22;;;-144.79;100.00
19827;BME280;10074;52.018;4.726;2022-12-18T05:18:45;46205.22;;;-144.79;100.00
19827;BME280;10074;52.018;4.726;2022-12-18T05:23:45;46235.28;;;-144.79;100.00
19827;BME280;10074;52.018;4.726;2022-12-18T05:28:45;46227.28;;;-144.79;100.00
19827;BME280;10074;52.018;4.726;2022-12-18T05:33:49;46247.31;;;-144.79;100.00
19827;BME280;10074;52.018;4.726;2022-12-18T05:38:49;46217.25;;;-144.79;100.00
19827;BME280;10074;52.018;4.726;2022-12-18T05:43:50;46259.34;;;-144.79;100.00
19827;BME280;10074;52.018;4.726;2022-12-18T05:48:50;46267.38;;;-144.79;100.00
19827;BME280;10074;52.018;4.726;2022-12-18T05:53:51;46299.47;;;-144.79;100.00
19827;BME280;10074;52.018;4.726;2022-12-18T05:58:53;46295.44;;;-144.79;100.00
19827;BME280;10074;52.018;4.726;2022-12-18T06:03:55;46299.47;;;-144.79;100.00
19827;BME280;10074;52.018;4.726;2022-12-18T06:08:57;46285.41;;;-144.79;100.00
19827;BME280;10074;52.018;4.726;2022-12-18T06:13:57;46303.47;;;-144.79;100.00
19827;BME280;10074;52.018;4.726;2022-12-18T06:19:03;46275.41;;;-144.79;100.00
19827;BME280;10074;52.018;4.726;2022-12-18T06:24:04;46297.44;;;-144.79;100.00
19827;BME280;10074;52.018;4.726;2022-12-18T06:29:05;46287.44;;;-144.79;100.00
19827;BME280;10074;52.018;4.726;2022-12-18T06:34:06;46291.44;;;-144.79;100.00
19827;BME280;10074;52.018;4.726;2022-12-18T06:39:06;46327.53;;;-144.79;100.00
19827;BME280;10074;52.018;4.726;2022-12-18T06:44:06;46339.56;;;-144.79;100.00
19827;BME280;10074;52.018;4.726;2022-12-18T06:49:07;46353.59;;;-144.79;100.00
19827;BME280;10074;52.018;4.726;2022-12-18T06:54:09;46359.59;;;-144.79;100.00
19827;BME280;10074;52.018;4.726;2022-12-18T06:59:09;46375.66;;;-144.79;100.00
19827;BME280;10074;52.018;4.726;2022-12-18T07:04:11;46463.88;;;-144.79;100.00
19827;BME280;10074;52.018;4.726;2022-12-18T07:09:11;46449.84;;;-144.79;100.00
19827;BME280;10074;52.018;4.726;2022-12-18T07:14:11;46465.88;;;-144.79;100.00
19827;BME280;10074;52.018;4.726;2022-12-18T07:19:12;46467.88;;;-144.79;100.00
19827;BME280;10074;52.018;4.726;2022-12-18T07:24:12;46485.94;;;-144.79;100.00
19827;BME280;10074;52.018;4.726;2022-12-18T07:29:13;46489.94;;;-144.79;100.00
19827;BME280;10074;52.018;4.726;2022-12-18T07:34:14;46506.00;;;-144.79;100.00
19827;BME280;10074;52.018;4.726;2022-12-18T07:39:15;46598.22;;;-144.79;100.00
19827;BME280;10074;52.018;4.726;2022-12-18T07:44:15;46734.59;;;-144.79;100.00
19827;BME280;10074;52.018;4.726;2022-12-18T07:49:15;46782.72;;;-144.79;100.00
19827;BME280;10074;52.018;4.726;2022-12-18T07:54:16;46810.78;;;-144.79;100.00
19827;BME280;10074;52.018;4.726;2022-12-18T07:59:17;46846.88;;;-144.79;100.00
19827;BME280;10074;52.018;4.726;2022-12-18T08:04:17;46832.84;;;-144.79;100.00
19827;BME280;10074;52.018;4.726;2022-12-18T08:09:18;46812.78;;;-144.79;100.00
19827;BME280;10074;52.018;4.726;2022-12-18T08:14:18;46788.72;;;-144.79;100.00
19827;BME280;10074;52.018;4.726;2022-12-18T08:19:18;46758.66;;;-144.79;100.00
19827;BME280;10074;52.018;4.726;2022-12-18T08:24:19;46700.50;;;-144.79;100.00
19827;BME280;10074;52.018;4.726;2022-12-18T08:29:19;46672.41;;;-144.79;100.00
19827;BME280;10074;52.018;4.726;2022-12-18T08:34:20;46616.28;;;-144.79;100.00
19827;BME280;10074;52.018;4.726;2022-12-18T08:39:20;46548.09;;;-144.79;100.00
19827;BME280;10074;52.018;4.726;2022-12-18T08:44:20;46548.09;;;-144.79;100.00
19827;BME280;10074;52.018;4.726;2022-12-18T08:49:39;46570.16;;;-144.79;100.00
19827;BME280;10074;52.018;4.726;2022-12-18T08:54:39;46560.13;;;-144.79;100.00
19827;BME280;10074;52.018;4.726;2022-12-18T08:59:39;46648.34;;;-144.79;100.00
19827;BME280;10074;52.018;4.726;2022-12-18T09:04:40;46744.63;;;-144.79;100.00
19827;BME280;10074;52.018;4.726;2022-12-18T09:09:40;46834.84;;;-144.79;100.00
19827;BME280;10074;52.018;4.726;2022-12-18T09:14:41;46872.97;;;-144.79;100.00
19827;BME280;10074;52.018;4.726;2022-12-18T09:19:41;46885.00;;;-144.79;100.00
19827;BME280;10074;52.018;4.726;2022-12-18T09:24:41;46866.94;;;-144.79;100.00
19827;BME280;10074;52.018;4.726;2022-12-18T09:29:41;46889.00;;;-144.79;100.00
19827;BME280;10074;52.018;4.726;2022-12-18T09:34:42;46860.94;;;-144.79;100.00
19827;BME280;10074;52.018;4.726;2022-12-18T09:39:42;46872.97;;;-144.79;100.00
19827;BME280;10074;52.018;4.726;2022-12-18T09:44:45;46840.88;;;-144.79;100.00
19827;BME280;10074;52.018;4.726;2022-12-18T09:55:31;46824.81;;;-144.79;100.00
19827;BME280;10074;52.018;4.726;2022-12-18T10:00:34;46768.69;;;-144.79;100.00
19827;BME280;10074;52.018;4.726;2022-12-18T10:10:52;46712.53;;;-144.79;100.00
19827;BME280;10074;52.018;4.726;2022-12-18T10:21:00;46676.44;;;-144.79;100.00
19827;BME280;10074;52.018;4.726;2022-12-18T10:26:05;46660.38;;;-144.79;100.00
19827;BME280;10074;52.018;4.726;2022-12-18T10:31:22;46628.31;;;-144.79;100.00
19827;BME280;10074;52.018;4.726;2022-12-18T10:36:24;46636.31;;;-144.79;100.00
19827;BME280;10074;52.018;4.726;2022-12-18T10:41:26;46634.31;;;-144.79;100.00
19827;BME280;10074;52.018;4.726;2022-12-18T10:46:27;46716.53;;;-144.79;100.00
19827;BME280;10074;52.018;4.726;2022-12-18T10:51:29;46768.69;;;-144.79;100.00
19827;BME280;10074;52.018;4.726;2022-12-18T10:56:33;46836.84;;;-144.79;100.00
19827;BME280;10074;52.018;4.726;2022-12-18T11:01:54;46864.94;;;-144.79;100.00
19827;BME280;10074;52.018;4.726;2022-12-18T11:07:02;46891.00;;;-144.79;100.00
19827;BME280;10074;52.018;4.726;2022-12-18T11:12:17;46889.00;;;-144.79;100.00
19827;BME280;10074;52.018;4.726;2022-12-18T11:17:31;46868.94;;;-144.79;100.00
19827;BME280;10074;52.018;4.726;2022-12-18T11:22:33;46889.00;;;-144.79;100.00
19827;BME280;10074;52.018;4.726;2022-12-18T11:27:34;46836.84;;;-144.79;100.00
19827;BME280;10074;52.018;4.726;2022-12-18T11:32:45;46844.88;;;-144.79;100.00
19827;BME280;10074;52.018;4.726;2022-12-18T11:37:53;46840.88;;;-144.79;100.00
19827;BME280;10074;52.018;4.726;2022-12-18T11:43:10;46812.78;;;-144.79;100.00
19827;BME280;10074;52.018;4.726;2022-12-18T11:53:16;46740.59;;;-144.79;100.00
19827;BME280;10074;52.018;4.726;2022-12-18T11:58:54;46740.59;;;-144.79;100.00
19827;BME280;10074;52.018;4.726;2022-12-18T12:04:14;46722.56;;;-144.79;100.00
19827;BME280;10074;52.018;4.726;2022-12-18T12:09:28;46668.41;;;-144.79;100.00
19827;BME280;10074;52.018;4.726;2022-12-18T12:14:43;46624.28;;;-144.79;100.00
19827;BME280;10074;52.018;4.726;2022-12-18T12:25:37;46626.31;;;-144.79;100.00
19827;BME280;10074;52.018;4.726;2022-12-18T12:30:54;46606.25;;;-144.79;100.00
19827;BME280;10074;52.018;4.726;2022-12-18T12:41:09;46640.34;;;-144.79;100.00
19827;BME280;10074;52.018;4.726;2022-12-18T12:46:35;46658.38;;;-144.79;100.00
19827;BME280;10074;52.018;4.726;2022-12-18T12:51:39;46616.28;;;-144.79;100.00
19827;BME280;10074;52.018;4.726;2022-12-18T12:56:54;46503.97;;;-144.79;100.00
19827;BME280;10074;52.018;4.726;2022-12-18T13:02:30;46435.81;;;-144.79;100.00
19827;BME280;10074;52.018;4.726;2022-12-18T13:07:40;46423.78;;;-144.79;100.00
19827;BME280;10074;52.018;4.726;2022-12-18T13:18:23;46447.84;;;-144.79;100.00
19827;BME280;10074;52.018;4.726;2022-12-18T13:33:46;46885.00;;;-144.79;100.00
19827;BME280;10074;52.018;4.726;2022-12-18T13:38:46;46870.94;;;-144.79;100.00
19827;BME280;10074;52.018;4.726;2022-12-18T13:43:52;46882.97;;;-144.79;100.00
19827;BME280;10074;52.018;4.726;2022-12-18T13:49:02;46907.03;;;-144.79;100.00
19827;BME280;10074;52.018;4.726;2022-12-18T13:54:36;46895.00;;;-144.79;100.00
19827;BME280;10074;52.018;4.726;2022-12-18T13:59:38;46882.97;;;-144.79;100.00
19827;BME280;10074;52.018;4.726;2022-12-18T14:04:39;46552.09;;;-144.79;100.00
19827;BME280;10074;52.018;4.726;2022-12-18T14:09:42;46243.31;;;-144.79;100.00
19827;BME280;10074;52.018;4.726;2022-12-18T14:14:46;46203.22;;;-144.79;100.00
19827;BME280;10074;52.018;4.726;2022-12-18T14:19:48;46205.22;;;-144.79;100.00
19827;BME280;10074;52.018;4.726;2022-12-18T14:25:10;46227.28;;;-144.79;100.00
19827;BME280;10074;52.018;4.726;2022-12-18T14:30:33;46165.13;;;-144.79;100.00
19827;BME280;10074;52.018;4.726;2022-12-18T14:35:40;46197.19;;;-144.79;100.00
19827;BME280;10074;52.018;4.726;2022-12-18T14:40:42;46191.19;;;-144.79;100.00
19827;BME280;10074;52.018;4.726;2022-12-18T14:45:43;46165.13;;;-144.79;100.00
19827;BME280;10074;52.018;4.726;2022-12-18T14:50:53;46209.22;;;-144.79;100.00
19827;BME280;10074;52.018;4.726;2022-12-18T14:55:54;46211.22;;;-144.79;100.00
19827;BME280;10074;52.018;4.726;2022-12-18T15:00:55;46205.22;;;-144.79;100.00
19827;BME280;10074;52.018;4.726;2022-12-18T15:05:55;46199.19;;;-144.79;100.00
19827;BME280;10074;52.018;4.726;2022-12-18T15:10:55;46205.22;;;-144.79;100.00
19827;BME280;10074;52.018;4.726;2022-12-18T15:16:00;46233.28;;;-144.79;100.00
19827;BME280;10074;52.018;4.726;2022-12-18T15:21:17;46233.28;;;-144.79;100.00
19827;BME280;10074;52.018;4.726;2022-12-18T15:26:22;46281.41;;;-144.79;100.00
19827;BME280;10074;52.018;4.726;2022-12-18T15:31:33;46283.41;;;-144.79;100.00
19827;BME280;10074;52.018;4.726;2022-12-18T15:36:35;46271.38;;;-144.79;100.00
19827;BME280;10074;52.018;4.726;2022-12-18T15:41:36;46313.50;;;-144.79;100.00
19827;BME280;10074;52.018;4.726;2022-12-18T15:46:36;46339.56;;;-144.79;100.00
19827;BME280;10074;52.018;4.726;2022-12-18T15:51:37;46357.59;;;-144.79;100.00
19827;BME280;10074;52.018;4.726;2022-12-18T15:56:38;46399.72;;;-144.79;100.00
19827;BME280;10074;52.018;4.726;2022-12-18T16:01:57;46401.72;;;-144.79;100.00
19827;BME280;10074;52.018;4.726;2022-12-18T16:06:57;46403.72;;;-144.79;100.00
19827;BME280;10074;52.018;4.726;2022-12-18T16:12:01;46419.75;;;-144.79;100.00
19827;BME280;10074;52.018;4.726;2022-12-18T16:17:08;46447.84;;;-144.79;100.00
19827;BME280;10074;52.018;4.726;2022-12-18T16:22:26;46431.78;;;-144.79;100.00
19827;BME280;10074;52.018;4.726;2022-12-18T16:27:27;46465.88;;;-144.79;100.00
19827;BME280;10074;52.018;4.726;2022-12-18T16:32:28;46493.97;;;-144.79;100.00
19827;BME280;10074;52.018;4.726;2022-12-18T16:37:28;46479.91;;;-144.79;100.00
19827;BME280;10074;52.018;4.726;2022-12-18T16:42:28;46427.78;;;-144.79;100.00
19827;BME280;10074;52.018;4.726;2022-12-18T16:47:29;46427.78;;;-144.79;100.00
19827;BME280;10074;52.018;4.726;2022-12-18T16:52:29;46427.78;;;-144.79;100.00
19827;BME280;10074;52.018;4.726;2022-12-18T16:57:30;46411.75;;;-144.79;100.00
19827;BME280;10074;52.018;4.726;2022-12-18T17:02:30;46401.72;;;-144.79;100.00
19827;BME280;10074;52.018;4.726;2022-12-18T17:07:30;46395.69;;;-144.79;100.00
19827;BME280;10074;52.018;4.726;2022-12-18T17:12:31;46371.63;;;-144.79;100.00
19827;BME280;10074;52.018;4.726;2022-12-18T17:17:31;46371.63;;;-144.79;100.00
19827;BME280;10074;52.018;4.726;2022-12-18T17:22:31;46361.63;;;-144.79;100.00
19827;BME280;10074;52.018;4.726;2022-12-18T17:27:32;46343.56;;;-144.79;100.00
19827;BME280;10074;52.018;4.726;2022-12-18T17:32:32;46347.56;;;-144.79;100.00
19827;BME280;10074;52.018;4.726;2022-12-18T17:37:32;46343.56;;;-144.79;100.00
19827;BME280;10074;52.018;4.726;2022-12-18T17:42:33;46319.50;;;-144.79;100.00
19827;BME280;10074;52.018;4.726;2022-12-18T17:47:33;46331.53;;;-144.79;100.00
19827;BME280;10074;52.018;4.726;2022-12-18T17:52:33;46327.53;;;-144.79;100.00
19827;BME280;10074;52.018;4.726;2022-12-18T17:57:34;46365.63;;;-144.79;100.00
19827;BME280;10074;52.018;4.726;2022-12-18T18:02:34;46359.59;;;-144.79;100.00
19827;BME280;10074;52.018;4.726;2022-12-18T18:07:34;46379.66;;;-144.79;100.00
19827;BME280;10074;52.018;4.726;2022-12-18T18:12:35;46431.78;;;-144.79;100.00
19827;BME280;10074;52.018;4.726;2022-12-18T18:17:54;46419.75;;;-144.79;100.00
19827;BME280;10074;52.018;4.726;2022-12-18T18:22:55;46461.88;;;-144.79;100.00
19827;BME280;10074;52.018;4.726;2022-12-18T18:27:55;46451.84;;;-144.79;100.00
19827;BME280;10074;52.018;4.726;2022-12-18T18:32:55;46471.91;;;-144.79;100.00
19827;BME280;10074;52.018;4.726;2022-12-18T18:37:56;46459.88;;;-144.79;100.00
19827;BME280;10074;52.018;4.726;2022-12-18T18:42:56;46425.78;;;-144.79;100.00
19827;BME280;10074;52.018;4.726;2022-12-18T18:47:56;46425.78;;;-144.79;100.00
19827;BME280;10074;52.018;4.726;2022-12-18T18:52:58;46423.78;;;-144.79;100.00
19827;BME280;10074;52.018;4.726;2022-12-18T18:57:58;46403.72;;;-144.79;100.00
19827;BME280;10074;52.018;4.726;2022-12-18T19:02:58;46403.72;;;-144.79;100.00
19827;BME280;10074;52.018;4.726;2022-12-18T19:07:59;46415.75;;;-144.79;100.00
19827;BME280;10074;52.018;4.726;2022-12-18T19:12:59;46427.78;;;-144.79;100.00
19827;BME280;10074;52.018;4.726;2022-12-18T19:18:18;46439.81;;;-144.79;100.00
19827;BME280;10074;52.018;4.726;2022-12-18T19:23:20;46239.31;;;-144.79;100.00
19827;BME280;10074;52.018;4.726;2022-12-18T19:28:21;46283.41;;;-144.79;100.00
19827;BME280;10074;52.018;4.726;2022-12-18T19:33:26;46235.28;;;-144.79;100.00
19827;BME280;10074;52.018;4.726;2022-12-18T19:38:27;46297.44;;;-144.79;100.00
19827;BME280;10074;52.018;4.726;2022-12-18T19:43:27;46299.47;;;-144.79;100.00
19827;BME280;10074;52.018;4.726;2022-12-18T19:48:28;46275.41;;;-144.79;100.00
19827;BME280;10074;52.018;4.726;2022-12-18T19:53:28;46275.41;;;-144.79;100.00
19827;BME280;10074;52.018;4.726;2022-12-18T19:58:28;46291.44;;;-144.79;100.00
19827;BME280;10074;52.018;4.726;2022-12-18T20:03:29;46283.41;;;-144.79;100.00
19827;BME280;10074;52.018;4.726;2022-12-18T20:08:29;46279.41;;;-144.79;100.00
19827;BME280;10074;52.018;4.726;2022-12-18T20:13:30;46275.41;;;-144.79;100.00
19827;BME280;10074;52.018;4.726;2022-12-18T20:18:30;46265.38;;;-144.79;100.00
19827;BME280;10074;52.018;4.726;2022-12-18T20:23:30;46251.34;;;-144.79;100.00
19827;BME280;10074;52.018;4.726;2022-12-18T20:28:31;46325.53;;;-144.79;100.00
19827;BME280;10074;52.018;4.726;2022-12-18T20:33:31;46311.50;;;-144.79;100.00
19827;BME280;10074;52.018;4.726;2022-12-18T20:38:33;46265.38;;;-144.79;100.00
19827;BME280;10074;52.018;4.726;2022-12-18T20:43:33;46279.41;;;-144.79;100.00
19827;BME280;10074;52.018;4.726;2022-12-18T20:48:35;46301.47;;;-144.79;100.00
19827;BME280;10074;52.018;4.726;2022-12-18T20:53:35;46311.50;;;-144.79;100.00
19827;BME280;10074;52.018;4.726;2022-12-18T20:58:36;46307.47;;;-144.79;100.00
19827;BME280;10074;52.018;4.726;2022-12-18T21:03:37;46295.44;;;-144.79;100.00
19827;BME280;10074;52.018;4.726;2022-12-18T21:08:38;46265.38;;;-144.79;100.00
19827;BME280;10074;52.018;4.726;2022-12-18T21:13:38;46281.41;;;-144.79;100.00
19827;BME280;10074;52.018;4.726;2022-12-18T21:18:38;46307.47;;;-144.79;100.00
19827;BME280;10074;52.018;4.726;2022-12-18T21:23:39;46323.53;;;-144.79;100.00
19827;BME280;10074;52.018;4.726;2022-12-18T21:28:39;46321.50;;;-144.79;100.00
19827;BME280;10074;52.018;4.726;2022-12-18T21:33:39;46303.47;;;-144.79;100.00
19827;BME280;10074;52.018;4.726;2022-12-18T21:38:40;46313.50;;;-144.79;100.00
19827;BME280;10074;52.018;4.726;2022-12-18T21:43:40;46307.47;;;-144.79;100.00
19827;BME280;10074;52.018;4.726;2022-12-18T21:49:17;46293.44;;;-144.79;100.00
19827;BME280;10074;52.018;4.726;2022-12-18T21:54:19;46301.47;;;-144.79;100.00
19827;BME280;10074;52.018;4.726;2022-12-18T22:04:22;46315.50;;;-144.79;100.00
19827;BME280;10074;52.018;4.726;2022-12-18T22:09:23;46315.50;;;-144.79;100.00
19827;BME280;10074;52.018;4.726;2022-12-18T22:14:24;46259.34;;;-144.79;100.00
19827;BME280;10074;52.018;4.726;2022-12-18T22:19:25;46253.34;;;-144.79;100.00
19827;BME280;10074;52.018;4.726;2022-12-18T22:24:25;46261.34;;;-144.79;100.00
19827;BME280;10074;52.018;4.726;2022-12-18T22:29:28;46215.25;;;-144.79;100.00
19827;BME280;10074;52.018;4.726;2022-12-18T22:34:47;46209.22;;;-144.79;100.00
19827;BME280;10074;52.018;4.726;2022-12-18T22:39:47;46223.25;;;-144.79;100.00
19827;BME280;10074;52.018;4.726;2022-12-18T22:44:47;46203.22;;;-144.79;100.00
19827;BME280;10074;52.018;4.726;2022-12-18T22:49:47;46187.19;;;-144.79;100.00
19827;BME280;10074;52.018;4.726;2022-12-18T22:54:48;46163.13;;;-144.79;100.00
19827;BME280;10074;52.018;4.726;2022-12-18T22:59:49;46161.09;;;-144.79;100.00
19827;BME280;10074;52.018;4.726;2022-12-18T23:04:50;46171.13;;;-144.79;100.00
19827;BME280;10074;52.018;4.726;2022-12-18T23:09:51;46167.13;;;-144.79;100.00
19827;BME280;10074;52.018;4.726;2022-12-18T23:14:51;46185.16;;;-144.79;100.00
19827;BME280;10074;52.018;4.726;2022-12-18T23:19:51;46185.16;;;-144.79;100.00
19827;BME280;10074;52.018;4.726;2022-12-18T23:24:52;46187.19;;;-144.79;100.00
19827;BME280;10074;52.018;4.726;2022-12-18T23:29:52;46189.19;;;-144.79;100.00
19827;BME280;10074;52.018;4.726;2022-12-18T23:34:52;46187.19;;;-144.79;100.00
19827;BME280;10074;52.018;4.726;2022-12-18T23:39:53;46199.19;;;-144.79;100.00
19827;BME280;10074;52.018;4.726;2022-12-18T23:44:53;46187.19;;;-144.79;100.00
19827;BME280;10074;52.018;4.726;2022-12-18T23:49:53;46191.19;;;-144.79;100.00
19827;BME280;10074;52.018;4.726;2022-12-18T23:54:54;46191.19;;;-144.79;100.00
19827;BME280;10074;52.018;4.726;2022-12-18T23:59:55;46187.19;;;-144.79;100.00
